Charlotte — SFB2936 — position and weather

sailwx.info

Track history (hours):
 
Tides and Currents Weather Stations Pressure Air Temp Water Temp Dewpoint Dewpoint Depression Visibility Wind Speed Wind Dir Waves Ship Positions

Charlotte

Last reported at 2015-Aug-08 16:33 UTC. Time now 2015-Sep-02 02:28 UTC.
Position N 55°56' E 012°46'.
Warning: this ship's position is 24 days out of date.

Length 11 m; draft 2 m.

Type: Fishing. MMSI: 265536200.

Date/timePositionNaut miles runAvg speedWind from/ knotsBaromVisibWave heightAir tempDewpointWater temp
2015-Aug-08 16:33N 55°56' E 012°46'3 3.0
2015-Aug-08 15:33N 55°53' E 012°46'4 4.4
2015-Aug-08 14:33N 55°49' E 012°48'5 4.5
2015-Aug-08 13:33N 55°45' E 012°50'5 4.6
2015-Aug-08 12:34N 55°40' E 012°52'4 4.1
2015-Aug-08 11:33N 55°36' E 012°51'4 4.1
2015-Aug-08 10:33N 55°32' E 012°52'5 5.3
2015-Aug-08 09:33N 55°27' E 012°54'3 2.8
2015-Aug-08 08:33N 55°24' E 012°56'3 3.4
2015-Aug-08 07:33N 55°22' E 012°60'5 4.6
2015-Aug-08 06:33N 55°21' E 013°08'1 1.3
2015-Aug-08 05:33N 55°22' E 013°09'  
Track history (hours):
 
Tides and Currents Weather Stations Pressure Air Temp Water Temp Dewpoint Dewpoint Depression Visibility Wind Speed Wind Dir Waves Ship Positions

Charlotte

Last reported at 2015-Aug-08 16:33 UTC. Time now 2015-Sep-02 02:28 UTC.
Position N 55°56' E 012°46'.
Warning: this ship's position is 24 days out of date.

Length 11 m; draft 2 m.

Type: Fishing. MMSI: 265536200.

Date/timePositionNaut miles runAvg speedWind from/ knotsBaromVisibWave heightAir tempDewpointWater temp
2015-Aug-08 16:33N 55°56' E 012°46'3 3.0
2015-Aug-08 15:33N 55°53' E 012°46'4 4.4
2015-Aug-08 14:33N 55°49' E 012°48'5 4.5
2015-Aug-08 13:33N 55°45' E 012°50'5 4.6
2015-Aug-08 12:34N 55°40' E 012°52'4 4.1
2015-Aug-08 11:33N 55°36' E 012°51'4 4.1
2015-Aug-08 10:33N 55°32' E 012°52'5 5.3
2015-Aug-08 09:33N 55°27' E 012°54'3 2.8
2015-Aug-08 08:33N 55°24' E 012°56'3 3.4
2015-Aug-08 07:33N 55°22' E 012°60'5 4.6
2015-Aug-08 06:33N 55°21' E 013°08'1 1.3
2015-Aug-08 05:33N 55°22' E 013°09'  

Dump ship's entire track history